Time;durP1;ratioP1;P1;durP2;ratioP2;P2;SDS_P1;SDS_P2;PMS_P1;PMS_P2;Temp;Humidity;BMP_temperature;BMP_pressure;BME280_temperature;BME280_humidity;BME280_pressure;Samples;Min_cycle;Max_cycle;Signal;HPM_P1;HPM_P2
2022/10/24 00:01:12;;;;;;;7.50;1.40;;;18.70;99.90;;;;;;5052391;28;20971;-72
2022/10/24 00:03:38;;;;;;;5.97;1.87;;;18.80;99.90;;;;;;5052103;28;20214;-73
2022/10/24 00:06:06;;;;;;;7.33;2.00;;;18.80;99.80;;;;;;5052133;28;20468;-72
2022/10/24 00:08:33;;;;;;;5.30;1.50;;;18.80;99.80;;;;;;5052207;28;20230;-73
2022/10/24 00:10:59;;;;;;;8.93;1.67;;;18.80;99.70;;;;;;5052135;28;20783;-73
2022/10/24 00:13:24;;;;;;;6.23;1.50;;;18.80;99.90;;;;;;5051673;28;20454;-74
2022/10/24 00:15:50;;;;;;;6.50;1.90;;;18.70;99.90;;;;;;5033560;28;20659;-73
2022/10/24 00:18:16;;;;;;;5.23;1.60;;;18.80;99.90;;;;;;5051450;28;20198;-73
2022/10/24 00:20:42;;;;;;;10.03;2.30;;;18.70;99.90;;;;;;5051111;28;20255;-73
2022/10/24 00:23:09;;;;;;;9.00;1.30;;;18.50;99.90;;;;;;5051161;28;20473;-74
2022/10/24 00:25:35;;;;;;;6.53;1.60;;;18.30;99.90;;;;;;5051324;28;20822;-73
2022/10/24 00:28:01;;;;;;;9.07;2.03;;;18.20;99.90;;;;;;5051411;28;20422;-73
2022/10/24 00:30:26;;;;;;;2.80;0.93;;;18.10;99.90;;;;;;5034105;28;20417;-73
2022/10/24 00:32:52;;;;;;;5.77;1.40;;;17.90;99.90;;;;;;5017407;28;20700;-73
2022/10/24 00:35:18;;;;;;;5.03;1.30;;;17.80;99.90;;;;;;5051737;28;20188;-73
2022/10/24 00:37:44;;;;;;;3.50;1.00;;;17.60;99.90;;;;;;5033916;28;20775;-73
2022/10/24 00:40:14;;;;;;;5.63;1.40;;;17.50;99.90;;;;;;5051518;28;20569;-73
2022/10/24 00:42:40;;;;;;;5.53;1.20;;;17.50;99.90;;;;;;5033527;28;20207;-74
2022/10/24 00:45:37;;;;;;;8.70;1.40;;;17.50;99.90;;;;;;5032586;28;20519;-72
2022/10/24 00:48:14;;;;;;;4.50;1.43;;;17.50;99.90;;;;;;5051586;28;20210;-73
2022/10/24 00:50:40;;;;;;;4.50;1.63;;;17.40;99.90;;;;;;5033440;28;20808;-72
2022/10/24 00:53:06;;;;;;;3.40;1.23;;;17.50;99.90;;;;;;5051453;28;20436;-72
2022/10/24 00:55:32;;;;;;;3.87;1.20;;;17.50;99.90;;;;;;5050645;28;20194;-73
2022/10/24 00:58:00;;;;;;;4.50;1.10;;;17.40;99.90;;;;;;5051364;28;20530;-73
2022/10/24 01:00:29;;;;;;;5.00;1.33;;;17.30;99.90;;;;;;5051303;28;20222;-73
2022/10/24 01:02:55;;;;;;;5.87;1.47;;;17.10;99.90;;;;;;5051251;28;20515;-72
2022/10/24 01:05:24;;;;;;;2.67;1.10;;;17.10;99.90;;;;;;5051253;28;20879;-72
2022/10/24 01:07:58;;;;;;;4.77;1.30;;;17.10;99.90;;;;;;5016991;28;20439;-72
2022/10/24 01:10:48;;;;;;;5.40;1.87;;;17.00;99.90;;;;;;5033242;28;20534;-73
2022/10/24 01:13:24;;;;;;;9.67;1.50;;;17.00;99.90;;;;;;5051049;28;20957;-72
2022/10/24 01:16:07;;;;;;;3.10;1.67;;;17.00;99.90;;;;;;5051193;28;20456;-72
2022/10/24 01:18:52;;;;;;;8.83;1.00;;;17.00;99.90;;;;;;5051072;28;20414;-73
2022/10/24 01:21:35;;;;;;;5.23;1.40;;;17.00;99.90;;;;;;5050995;28;20413;-72
2022/10/24 01:24:19;;;;;;;6.63;1.70;;;16.90;99.90;;;;;;5051306;28;20436;-72
2022/10/24 01:27:01;;;;;;;6.30;1.83;;;16.90;99.90;;;;;;5050821;28;20410;-72
2022/10/24 01:29:36;;;;;;;3.50;1.27;;;16.90;99.90;;;;;;5049509;28;20467;-72
2022/10/24 01:32:12;;;;;;;6.90;1.60;;;16.90;99.90;;;;;;5050687;28;20411;-72
2022/10/24 01:34:47;;;;;;;7.10;2.73;;;16.90;99.90;;;;;;5050676;28;20507;-72
2022/10/24 01:37:39;;;;;;;5.70;1.40;;;17.00;99.90;;;;;;5049490;28;20952;-72
2022/10/24 01:40:12;;;;;;;8.17;2.63;;;17.00;99.90;;;;;;5051090;28;20451;-72
2022/10/24 01:42:40;;;;;;;5.03;1.63;;;17.00;99.90;;;;;;5051140;28;20479;-72
2022/10/24 01:45:09;;;;;;;8.67;1.90;;;17.00;99.90;;;;;;5051054;28;20453;-72
2022/10/24 01:47:43;;;;;;;10.20;1.80;;;17.10;99.90;;;;;;5051081;28;20457;-73
2022/10/24 01:50:12;;;;;;;8.63;1.57;;;17.10;99.90;;;;;;5050551;28;20412;-72
2022/10/24 01:52:41;;;;;;;6.13;1.77;;;17.20;99.90;;;;;;5050593;28;20910;-72
2022/10/24 01:55:07;;;;;;;12.43;1.97;;;17.20;99.90;;;;;;5050251;28;20536;-72
2022/10/24 01:57:34;;;;;;;7.57;1.70;;;17.20;99.90;;;;;;5050302;28;20426;-72
2022/10/24 02:00:00;;;;;;;10.63;1.63;;;17.30;99.90;;;;;;5050516;28;20793;-72
2022/10/24 02:02:35;;;;;;;13.50;2.80;;;17.40;99.90;;;;;;5050485;28;20933;-73
2022/10/24 02:05:20;;;;;;;11.03;2.17;;;17.50;99.90;;;;;;5050026;28;20906;-73
2022/10/24 02:07:50;;;;;;;13.00;2.40;;;17.50;99.90;;;;;;5031105;28;20821;-73
2022/10/24 02:10:26;;;;;;;15.33;2.80;;;17.50;99.90;;;;;;5050019;28;20914;-72
2022/10/24 02:13:03;;;;;;;7.13;2.60;;;17.50;99.90;;;;;;5049842;28;20869;-73
2022/10/24 02:15:33;;;;;;;10.13;2.00;;;17.60;99.90;;;;;;5032117;28;20948;-73
2022/10/24 02:18:00;;;;;;;9.97;1.90;;;17.60;99.90;;;;;;5050167;28;20425;-73
2022/10/24 02:20:45;;;;;;;11.40;2.47;;;17.60;99.90;;;;;;5033040;28;20913;-73
2022/10/24 02:23:30;;;;;;;9.23;2.73;;;17.60;99.90;;;;;;5032468;28;20452;-73
2022/10/24 02:25:59;;;;;;;7.50;2.43;;;17.60;99.90;;;;;;5050552;28;20456;-72
2022/10/24 02:28:31;;;;;;;12.70;2.50;;;17.50;99.90;;;;;;5050475;28;20427;-73
2022/10/24 02:31:01;;;;;;;12.07;2.13;;;17.60;99.90;;;;;;5050521;28;20459;-72
2022/10/24 02:33:29;;;;;;;6.47;2.10;;;17.60;99.90;;;;;;5050255;28;20850;-73
2022/10/24 02:35:56;;;;;;;8.47;2.47;;;17.50;99.90;;;;;;5032302;28;20902;-73
2022/10/24 02:38:28;;;;;;;6.77;2.20;;;17.50;99.90;;;;;;5049744;28;20420;-72
2022/10/24 02:40:57;;;;;;;9.13;2.20;;;17.50;99.90;;;;;;5049793;28;20424;-73
2022/10/24 02:43:25;;;;;;;16.10;3.23;;;17.30;99.90;;;;;;5031569;28;20443;-73
2022/10/24 02:45:53;;;;;;;10.73;2.20;;;17.30;99.90;;;;;;5049513;28;20472;-73
2022/10/24 02:48:22;;;;;;;8.73;2.37;;;17.20;99.90;;;;;;5049559;28;20419;-73
2022/10/24 02:50:48;;;;;;;10.70;2.20;;;17.20;99.90;;;;;;5049415;28;20426;-74
2022/10/24 02:53:18;;;;;;;8.83;2.63;;;17.00;99.90;;;;;;5047815;28;20891;-74
2022/10/24 02:55:43;;;;;;;11.90;2.47;;;16.80;99.90;;;;;;5049285;28;21066;-73
2022/10/24 02:58:10;;;;;;;12.77;2.60;;;16.70;99.90;;;;;;5031067;28;20841;-73
2022/10/24 03:00:35;;;;;;;9.50;2.53;;;16.60;99.90;;;;;;5049123;28;20739;-74
2022/10/24 03:03:01;;;;;;;3.27;1.50;;;16.60;99.90;;;;;;5048917;28;20548;-73
2022/10/24 03:05:27;;;;;;;13.53;2.03;;;16.60;99.90;;;;;;5049845;28;20210;-77
2022/10/24 03:07:52;;;;;;;6.67;1.90;;;16.60;99.90;;;;;;5045782;28;20194;-76
2022/10/24 03:10:18;;;;;;;9.33;2.17;;;16.70;99.90;;;;;;5046841;28;20204;-77
2022/10/24 03:12:44;;;;;;;8.40;2.20;;;16.80;99.90;;;;;;5046727;28;20224;-75
2022/10/24 03:15:10;;;;;;;8.30;1.80;;;16.80;99.90;;;;;;5061018;28;20190;-73
2022/10/24 03:17:36;;;;;;;7.40;2.30;;;16.80;99.90;;;;;;5048712;28;20684;-72
2022/10/24 03:20:01;;;;;;;9.77;2.63;;;16.90;99.90;;;;;;5030871;28;20707;-72
2022/10/24 03:22:27;;;;;;;6.40;2.40;;;16.90;99.90;;;;;;5030421;28;20309;-72
2022/10/24 03:24:53;;;;;;;10.43;2.60;;;16.90;99.90;;;;;;5030622;28;20214;-72
2022/10/24 03:27:18;;;;;;;6.33;1.73;;;16.90;99.90;;;;;;5048981;28;20344;-72
2022/10/24 03:29:44;;;;;;;8.60;2.00;;;16.90;99.90;;;;;;5014511;28;20642;-72
2022/10/24 03:32:09;;;;;;;8.37;2.40;;;16.90;99.90;;;;;;5048813;28;20263;-72
2022/10/24 03:34:35;;;;;;;4.10;2.27;;;16.80;99.90;;;;;;5049077;28;20195;-72
2022/10/24 03:37:01;;;;;;;5.70;2.00;;;16.80;99.90;;;;;;5030956;28;20215;-73
2022/10/24 03:39:26;;;;;;;13.00;2.37;;;16.80;99.90;;;;;;5048874;28;20705;-72
2022/10/24 03:41:52;;;;;;;8.60;2.30;;;16.80;99.90;;;;;;5030594;28;20223;-72
2022/10/24 03:44:17;;;;;;;9.93;2.27;;;16.80;99.90;;;;;;5048628;28;20558;-73
2022/10/24 03:46:43;;;;;;;13.50;1.97;;;16.80;99.90;;;;;;5030717;28;20621;-72
2022/10/24 03:49:09;;;;;;;7.07;2.57;;;16.80;99.90;;;;;;5030832;28;20243;-73
2022/10/24 03:51:34;;;;;;;6.70;2.87;;;16.80;99.90;;;;;;5030740;28;20233;-72
2022/10/24 03:54:00;;;;;;;6.63;1.70;;;16.90;99.90;;;;;;5048576;28;20772;-72
2022/10/24 03:56:25;;;;;;;4.37;2.10;;;16.80;99.90;;;;;;5030871;28;20178;-72
2022/10/24 03:58:51;;;;;;;6.87;2.00;;;16.80;99.90;;;;;;5048530;28;20241;-72
2022/10/24 04:01:17;;;;;;;8.93;2.77;;;16.80;99.90;;;;;;5048600;28;20553;-72
2022/10/24 04:03:44;;;;;;;6.20;2.40;;;16.90;99.90;;;;;;5048587;28;20232;-72
2022/10/24 04:06:11;;;;;;;8.03;2.40;;;16.80;99.90;;;;;;5048367;28;20469;-72
2022/10/24 04:08:36;;;;;;;7.80;2.30;;;16.80;99.90;;;;;;5048324;28;20498;-73
2022/10/24 04:11:03;;;;;;;7.27;2.50;;;16.80;99.90;;;;;;5048337;28;20429;-72
2022/10/24 04:13:28;;;;;;;10.37;2.63;;;16.80;99.90;;;;;;5048328;28;20218;-72
2022/10/24 04:15:54;;;;;;;5.33;1.83;;;16.80;99.90;;;;;;5048465;28;20939;-72
2022/10/24 04:18:20;;;;;;;8.73;1.80;;;16.80;99.90;;;;;;5048112;28;20193;-72
2022/10/24 04:20:45;;;;;;;4.13;2.00;;;16.80;99.90;;;;;;5028500;28;20198;-72
2022/10/24 04:23:11;;;;;;;10.93;2.47;;;16.80;99.90;;;;;;5046675;28;20210;-72
2022/10/24 04:25:38;;;;;;;9.50;3.20;;;16.80;99.90;;;;;;5028509;28;20222;-72
2022/10/24 04:28:03;;;;;;;9.17;2.43;;;16.80;99.90;;;;;;5046289;28;20174;-72
2022/10/24 04:30:29;;;;;;;8.77;2.70;;;16.80;99.90;;;;;;5047832;28;20435;-72
2022/10/24 04:32:55;;;;;;;11.33;2.47;;;16.90;99.90;;;;;;5032016;28;20198;-72
2022/10/24 04:35:22;;;;;;;9.43;2.70;;;16.90;99.90;;;;;;5032068;28;20185;-72
2022/10/24 04:37:47;;;;;;;16.27;2.63;;;16.90;99.90;;;;;;5049862;28;20427;-72
2022/10/24 04:40:13;;;;;;;5.93;1.90;;;17.00;99.90;;;;;;5049871;28;20426;-72
2022/10/24 04:42:39;;;;;;;8.53;3.07;;;16.90;99.90;;;;;;5049952;28;20214;-72
2022/10/24 04:45:05;;;;;;;4.50;1.90;;;16.90;99.90;;;;;;5049365;28;20238;-72
2022/10/24 04:47:31;;;;;;;4.80;2.07;;;17.00;99.90;;;;;;5049539;28;20490;-72
2022/10/24 04:49:57;;;;;;;3.50;1.70;;;16.90;99.90;;;;;;5031654;28;20925;-72
2022/10/24 04:52:23;;;;;;;10.13;1.60;;;16.90;99.90;;;;;;5049300;28;20206;-72
2022/10/24 04:54:48;;;;;;;8.10;2.07;;;17.10;99.90;;;;;;5049643;28;20213;-72
2022/10/24 04:57:14;;;;;;;6.90;2.13;;;17.00;99.90;;;;;;5031698;28;20249;-72
2022/10/24 04:59:39;;;;;;;7.17;2.70;;;16.90;99.90;;;;;;5049751;28;20195;-72
2022/10/24 05:02:05;;;;;;;5.87;1.70;;;17.00;99.90;;;;;;5049609;28;20190;-73
2022/10/24 05:04:31;;;;;;;4.73;1.90;;;16.90;99.90;;;;;;5049933;28;20217;-73
2022/10/24 05:06:56;;;;;;;10.50;2.10;;;17.00;99.90;;;;;;5050125;28;20704;-73
2022/10/24 05:09:22;;;;;;;7.20;2.10;;;16.90;99.90;;;;;;5049451;28;20182;-74
2022/10/24 05:11:48;;;;;;;4.90;2.10;;;16.80;99.90;;;;;;5049619;28;20542;-72
2022/10/24 05:14:13;;;;;;;9.87;1.63;;;16.90;99.90;;;;;;5049120;28;20357;-73
2022/10/24 05:16:39;;;;;;;6.93;1.67;;;16.80;99.90;;;;;;5049508;28;20256;-73
2022/10/24 05:19:05;;;;;;;10.13;1.73;;;16.80;99.90;;;;;;5030999;28;20185;-73
2022/10/24 05:21:32;;;;;;;9.83;2.40;;;16.90;99.90;;;;;;5048924;28;20190;-74
2022/10/24 05:23:58;;;;;;;5.40;1.70;;;16.90;99.90;;;;;;5049050;28;20496;-73
2022/10/24 05:26:24;;;;;;;16.03;2.50;;;16.90;99.90;;;;;;5049126;28;20428;-73
2022/10/24 05:28:50;;;;;;;12.63;1.70;;;16.90;99.90;;;;;;5014553;28;20433;-74
2022/10/24 05:31:15;;;;;;;6.17;1.67;;;16.90;99.90;;;;;;5049181;28;20425;-73
2022/10/24 05:33:41;;;;;;;15.43;2.77;;;16.90;99.90;;;;;;5049252;28;20202;-73
2022/10/24 05:36:07;;;;;;;4.97;1.50;;;17.00;99.90;;;;;;5049194;28;20279;-73
2022/10/24 05:38:33;;;;;;;11.33;2.03;;;16.90;99.90;;;;;;5049233;28;20194;-73
2022/10/24 05:40:58;;;;;;;4.30;1.37;;;16.90;99.90;;;;;;5014324;28;20431;-73
2022/10/24 05:43:24;;;;;;;6.10;2.20;;;16.90;99.90;;;;;;5048999;28;20214;-72
2022/10/24 05:45:50;;;;;;;2.93;1.53;;;16.80;99.90;;;;;;5048898;28;20343;-73
2022/10/24 05:48:15;;;;;;;8.00;2.30;;;16.80;99.90;;;;;;5048520;28;20225;-72
2022/10/24 05:50:41;;;;;;;3.43;1.73;;;16.80;99.90;;;;;;5030242;28;20202;-72
2022/10/24 05:53:07;;;;;;;4.67;1.67;;;16.80;99.90;;;;;;5030135;28;20676;-72
2022/10/24 05:55:34;;;;;;;9.60;1.80;;;16.80;99.90;;;;;;5048273;28;20433;-72
2022/10/24 05:58:00;;;;;;;7.13;2.00;;;16.80;99.90;;;;;;5046735;28;21024;-72
2022/10/24 06:00:25;;;;;;;3.57;1.33;;;16.80;99.90;;;;;;5048125;28;20512;-72
2022/10/24 06:02:51;;;;;;;4.70;1.90;;;16.80;99.90;;;;;;5030177;28;20336;-72
2022/10/24 06:05:17;;;;;;;8.87;2.10;;;16.80;99.90;;;;;;5048035;28;20215;-72
2022/10/24 06:07:44;;;;;;;7.00;1.63;;;16.80;99.90;;;;;;5030373;28;20465;-72
2022/10/24 06:10:10;;;;;;;5.00;2.20;;;16.80;99.90;;;;;;5047991;28;20878;-72
2022/10/24 06:12:36;;;;;;;5.00;2.03;;;16.80;99.90;;;;;;5045980;28;20467;-72
2022/10/24 06:15:04;;;;;;;6.17;1.60;;;16.80;99.90;;;;;;5047676;28;20432;-73
2022/10/24 06:17:30;;;;;;;6.37;1.90;;;16.80;99.90;;;;;;5047567;28;20452;-73
2022/10/24 06:19:55;;;;;;;2.67;1.37;;;16.90;99.90;;;;;;5047628;28;20429;-72
2022/10/24 06:22:23;;;;;;;6.83;1.47;;;16.90;99.90;;;;;;5047342;28;20214;-72
2022/10/24 06:24:49;;;;;;;6.40;1.70;;;17.00;99.90;;;;;;5029161;28;20222;-73
2022/10/24 06:27:14;;;;;;;8.50;2.10;;;17.10;99.90;;;;;;5047373;28;20503;-73
2022/10/24 06:29:40;;;;;;;3.23;1.80;;;17.10;99.90;;;;;;5012869;28;20659;-72
2022/10/24 06:32:06;;;;;;;3.40;1.40;;;17.20;99.90;;;;;;5029145;28;20651;-73
2022/10/24 06:34:32;;;;;;;6.17;2.13;;;17.10;99.90;;;;;;5047172;28;20787;-73
2022/10/24 06:36:58;;;;;;;7.57;1.97;;;17.00;99.90;;;;;;5029256;28;20187;-73
2022/10/24 06:39:23;;;;;;;6.90;2.23;;;16.90;99.90;;;;;;5047187;28;20302;-73
2022/10/24 06:41:49;;;;;;;5.23;1.67;;;16.80;99.90;;;;;;5029537;28;20425;-73
2022/10/24 06:44:15;;;;;;;7.70;2.13;;;16.80;99.90;;;;;;5029142;28;20305;-73
2022/10/24 06:46:40;;;;;;;6.63;1.37;;;16.60;99.90;;;;;;5029356;28;20294;-73
2022/10/24 06:49:06;;;;;;;4.00;1.93;;;16.60;99.90;;;;;;5047289;28;20233;-73
2022/10/24 06:51:32;;;;;;;11.50;2.40;;;16.60;99.90;;;;;;5047068;28;20269;-73
2022/10/24 06:53:58;;;;;;;10.83;2.43;;;16.60;99.90;;;;;;5028064;28;20442;-73
2022/10/24 06:56:24;;;;;;;7.13;2.13;;;16.40;99.90;;;;;;5046898;28;20204;-73
2022/10/24 06:58:49;;;;;;;8.13;2.03;;;16.30;99.90;;;;;;5012460;28;21008;-73
2022/10/24 07:01:21;;;;;;;6.63;2.00;;;16.30;99.90;;;;;;5046982;28;20558;-73
2022/10/24 07:03:47;;;;;;;6.23;1.90;;;16.20;99.90;;;;;;5047218;28;20676;-73
2022/10/24 07:06:18;;;;;;;5.63;2.20;;;16.30;99.90;;;;;;5045145;28;20460;-73
2022/10/24 07:08:44;;;;;;;8.03;2.37;;;16.20;99.90;;;;;;5046705;28;20428;-73
2022/10/24 07:11:09;;;;;;;4.30;1.50;;;16.30;99.90;;;;;;5046696;28;20424;-73
2022/10/24 07:13:35;;;;;;;6.70;1.80;;;16.30;99.90;;;;;;5046857;28;20573;-72
2022/10/24 07:16:01;;;;;;;7.30;1.83;;;16.30;99.90;;;;;;5046724;28;20187;-73
2022/10/24 07:18:26;;;;;;;3.50;1.67;;;16.30;99.90;;;;;;5046770;28;20190;-73
2022/10/24 07:20:52;;;;;;;4.13;1.60;;;16.30;99.90;;;;;;5028618;28;20192;-73
2022/10/24 07:23:18;;;;;;;3.80;1.40;;;16.40;99.90;;;;;;5046904;28;20741;-73
2022/10/24 07:25:44;;;;;;;8.50;1.67;;;16.30;99.90;;;;;;5028713;28;20309;-73
2022/10/24 07:28:10;;;;;;;6.70;2.10;;;16.30;99.90;;;;;;5028613;28;20198;-73
2022/10/24 07:30:36;;;;;;;6.03;2.10;;;16.30;99.90;;;;;;5046492;28;20434;-74
2022/10/24 07:33:03;;;;;;;8.33;1.63;;;16.20;99.90;;;;;;5046586;28;20909;-73
2022/10/24 07:35:29;;;;;;;5.70;1.60;;;16.20;99.90;;;;;;5046401;28;20439;-75
2022/10/24 07:37:54;;;;;;;5.17;1.53;;;16.10;99.90;;;;;;5011902;28;20886;-74
2022/10/24 07:40:20;;;;;;;7.13;2.17;;;16.10;99.90;;;;;;5028316;28;20221;-75
2022/10/24 07:42:46;;;;;;;10.07;2.03;;;15.90;99.90;;;;;;5028338;28;20292;-75
2022/10/24 07:45:11;;;;;;;3.37;1.47;;;15.70;99.90;;;;;;5028228;28;20596;-75
2022/10/24 07:47:37;;;;;;;9.27;2.10;;;15.70;99.90;;;;;;5028423;28;20186;-76
2022/10/24 07:50:04;;;;;;;5.73;1.87;;;15.50;99.90;;;;;;5028348;28;20177;-76
2022/10/24 07:52:30;;;;;;;6.70;1.87;;;15.30;99.90;;;;;;5046156;28;20201;-75
2022/10/24 07:54:56;;;;;;;9.10;1.87;;;15.40;99.90;;;;;;5028370;28;20489;-75
2022/10/24 07:57:23;;;;;;;7.57;2.27;;;15.40;99.90;;;;;;5028233;28;20280;-75
2022/10/24 07:59:49;;;;;;;3.93;1.83;;;15.40;99.90;;;;;;5046286;28;20449;-75
2022/10/24 08:02:15;;;;;;;8.17;2.20;;;15.30;99.90;;;;;;5046567;28;20456;-75
2022/10/24 08:04:41;;;;;;;3.57;1.73;;;15.30;99.90;;;;;;5030243;28;20528;-75
2022/10/24 08:07:11;;;;;;;5.13;1.80;;;15.40;99.90;;;;;;5050247;28;20916;-75
2022/10/24 08:09:43;;;;;;;8.50;2.20;;;15.50;99.90;;;;;;5032711;28;20526;-75
2022/10/24 08:12:09;;;;;;;8.40;1.90;;;15.50;99.90;;;;;;5049994;28;20459;-76
2022/10/24 08:14:41;;;;;;;11.10;2.37;;;15.50;99.90;;;;;;5049868;28;20572;-75
2022/10/24 08:17:07;;;;;;;6.53;2.57;;;15.50;99.90;;;;;;5049608;28;20431;-75
2022/10/24 08:19:33;;;;;;;8.00;2.57;;;15.50;99.90;;;;;;5049752;28;20425;-75
2022/10/24 08:22:00;;;;;;;3.90;1.93;;;15.60;99.90;;;;;;5049536;28;20185;-75
2022/10/24 08:24:26;;;;;;;6.87;2.17;;;15.60;99.90;;;;;;5049537;28;20496;-75
2022/10/24 08:26:52;;;;;;;11.40;2.17;;;15.70;99.90;;;;;;5049580;28;20470;-75
2022/10/24 08:29:22;;;;;;;8.47;1.60;;;15.80;99.90;;;;;;5049601;28;20428;-75
2022/10/24 08:31:52;;;;;;;11.63;2.70;;;15.60;99.90;;;;;;5031420;28;20216;-75
2022/10/24 08:34:19;;;;;;;9.87;2.57;;;15.50;99.90;;;;;;5031323;28;21902;-77
2022/10/24 08:36:46;;;;;;;7.00;1.70;;;15.50;99.90;;;;;;5031495;28;20420;-76
2022/10/24 08:39:11;;;;;;;7.20;1.50;;;15.50;99.90;;;;;;5049932;28;20801;-75
2022/10/24 08:41:39;;;;;;;6.13;1.70;;;15.50;99.90;;;;;;5049473;28;20419;-75
2022/10/24 08:44:15;;;;;;;4.13;1.73;;;15.50;99.90;;;;;;5049352;28;20211;-75
2022/10/24 08:46:49;;;;;;;6.03;2.50;;;15.50;99.90;;;;;;5049713;28;20454;-75
2022/10/24 08:49:39;;;;;;;4.57;1.40;;;15.50;99.90;;;;;;5049818;28;20415;-75
2022/10/24 08:52:35;;;;;;;6.07;1.90;;;15.50;99.90;;;;;;5049798;28;20434;-74
2022/10/24 08:55:23;;;;;;;8.30;2.37;;;15.40;99.90;;;;;;5049452;28;20476;-74
2022/10/24 08:57:53;;;;;;;6.23;1.60;;;15.40;99.90;;;;;;5049244;28;20501;-75
2022/10/24 09:00:22;;;;;;;9.90;1.80;;;15.40;99.90;;;;;;5049267;28;20806;-75
2022/10/24 09:03:09;;;;;;;4.60;1.40;;;15.40;99.90;;;;;;5049062;28;20454;-74
2022/10/24 09:05:41;;;;;;;3.97;1.60;;;15.50;99.90;;;;;;5048837;28;20470;-74
2022/10/24 09:08:37;;;;;;;6.83;1.70;;;15.40;99.90;;;;;;5048952;28;20423;-74
2022/10/24 09:11:05;;;;;;;4.40;1.67;;;15.40;99.90;;;;;;5042133;28;20449;-74
2022/10/24 09:13:35;;;;;;;9.00;2.00;;;15.50;99.90;;;;;;5047172;28;20463;-74
2022/10/24 09:16:00;;;;;;;7.17;2.33;;;15.50;99.90;;;;;;5030491;28;20427;-75
2022/10/24 09:18:33;;;;;;;7.20;2.57;;;15.50;99.90;;;;;;5048682;28;20422;-75
2022/10/24 09:21:00;;;;;;;6.97;1.60;;;15.50;99.90;;;;;;5048601;28;20465;-74
2022/10/24 09:23:26;;;;;;;3.00;1.30;;;15.60;99.90;;;;;;5030269;28;20800;-73
2022/10/24 09:25:55;;;;;;;8.20;1.70;;;15.70;99.90;;;;;;5030634;28;20464;-74
2022/10/24 09:28:20;;;;;;;7.20;1.93;;;15.80;99.90;;;;;;5046842;28;20429;-74
2022/10/24 09:30:47;;;;;;;8.17;1.90;;;15.80;99.90;;;;;;5048558;28;20423;-73
2022/10/24 09:33:27;;;;;;;6.03;1.40;;;15.90;99.90;;;;;;5030426;28;20205;-73
2022/10/24 09:35:56;;;;;;;4.90;1.23;;;16.00;99.90;;;;;;5048591;28;20420;-73
2022/10/24 09:38:21;;;;;;;7.70;1.57;;;16.00;99.90;;;;;;5030756;28;20492;-72
2022/10/24 09:40:53;;;;;;;4.73;1.30;;;16.10;99.90;;;;;;5048700;28;20841;-74
2022/10/24 09:43:31;;;;;;;6.60;1.47;;;16.10;99.90;;;;;;5048683;28;20210;-72
2022/10/24 09:46:05;;;;;;;9.10;1.93;;;16.10;99.90;;;;;;5048817;28;20470;-73
2022/10/24 09:48:47;;;;;;;3.00;1.33;;;16.20;99.90;;;;;;5030947;28;20429;-73
2022/10/24 09:51:32;;;;;;;7.43;1.93;;;16.20;99.90;;;;;;5048907;28;20522;-73
2022/10/24 09:54:05;;;;;;;4.60;1.23;;;16.30;99.90;;;;;;5030360;28;21044;-74
2022/10/24 09:56:40;;;;;;;3.47;1.43;;;16.30;99.90;;;;;;5048480;28;20804;-73
2022/10/24 09:59:24;;;;;;;7.50;1.30;;;16.30;99.90;;;;;;5048250;28;20421;-74
2022/10/24 10:01:50;;;;;;;5.73;1.57;;;16.30;99.90;;;;;;5030048;28;20535;-73
2022/10/24 10:04:17;;;;;;;6.80;1.50;;;16.30;99.90;;;;;;5013694;28;20568;-74
2022/10/24 10:06:48;;;;;;;5.77;1.30;;;16.30;99.90;;;;;;5029656;28;20479;-73
2022/10/24 10:09:22;;;;;;;4.50;1.40;;;16.30;99.90;;;;;;5029420;28;20528;-73
2022/10/24 10:11:57;;;;;;;3.77;1.30;;;16.40;99.90;;;;;;5047863;28;20427;-73
2022/10/24 10:14:25;;;;;;;4.00;1.43;;;16.40;99.90;;;;;;5047525;28;20432;-73
2022/10/24 10:17:05;;;;;;;4.23;1.30;;;16.40;99.90;;;;;;5047626;28;20435;-73
2022/10/24 10:19:35;;;;;;;4.47;1.20;;;16.40;99.90;;;;;;5047584;28;20558;-72
2022/10/24 10:22:04;;;;;;;7.50;1.30;;;16.40;99.90;;;;;;5045877;28;20540;-73
2022/10/24 10:24:45;;;;;;;5.60;1.87;;;16.40;99.90;;;;;;5047398;28;20475;-73
2022/10/24 10:27:34;;;;;;;4.93;1.20;;;16.30;99.90;;;;;;5046635;28;20758;-73
2022/10/24 10:30:15;;;;;;;4.70;1.37;;;16.30;99.90;;;;;;5029338;28;20438;-73
2022/10/24 10:32:53;;;;;;;4.73;1.60;;;16.20;99.90;;;;;;5029131;28;20494;-73
2022/10/24 10:35:51;;;;;;;5.87;1.20;;;16.20;99.90;;;;;;5048584;28;20751;-73
2022/10/24 10:38:41;;;;;;;3.70;1.17;;;16.10;99.90;;;;;;5017548;28;20587;-73
2022/10/24 10:41:37;;;;;;;2.43;1.10;;;16.10;99.90;;;;;;5048158;28;20772;-73
2022/10/24 10:44:51;;;;;;;4.70;1.20;;;16.00;99.90;;;;;;5047279;28;20432;-73
2022/10/24 10:47:19;;;;;;;6.57;1.37;;;16.00;99.90;;;;;;4974856;28;20492;-73
2022/10/24 10:49:49;;;;;;;6.10;1.20;;;16.00;99.90;;;;;;5046915;28;20418;-74
2022/10/24 10:52:36;;;;;;;2.47;1.00;;;16.00;99.90;;;;;;5046992;28;20432;-73
2022/10/24 10:55:13;;;;;;;2.47;0.83;;;16.00;99.90;;;;;;5046981;28;20411;-73
2022/10/24 10:58:03;;;;;;;1.20;0.70;;;16.10;99.90;;;;;;5028701;28;20494;-72
2022/10/24 11:00:35;;;;;;;2.40;0.73;;;16.20;99.90;;;;;;5046895;28;20399;-76
2022/10/24 11:03:08;;;;;;;4.20;1.50;;;16.20;99.90;;;;;;5028995;28;20766;-73
2022/10/24 11:05:50;;;;;;;4.60;1.30;;;16.20;99.90;;;;;;5028390;28;20995;-73
2022/10/24 11:08:33;;;;;;;2.30;1.10;;;16.30;99.90;;;;;;5046959;28;20414;-74
2022/10/24 11:11:04;;;;;;;8.10;1.13;;;16.40;99.90;;;;;;5046791;28;20424;-74
2022/10/24 11:13:39;;;;;;;3.57;1.00;;;16.40;99.90;;;;;;5046624;28;20459;-73
2022/10/24 11:16:11;;;;;;;4.30;1.13;;;16.40;99.90;;;;;;5046932;28;20507;-73
2022/10/24 11:18:41;;;;;;;4.83;1.20;;;16.40;99.90;;;;;;5046851;28;20517;-73
2022/10/24 11:21:12;;;;;;;6.50;1.20;;;16.50;99.90;;;;;;5047816;28;21069;-72
2022/10/24 11:23:59;;;;;;;2.30;0.70;;;16.50;99.90;;;;;;5047769;28;20899;-72
2022/10/24 11:26:36;;;;;;;2.73;1.20;;;16.50;99.90;;;;;;5046513;28;20978;-73
2022/10/24 11:29:25;;;;;;;1.90;1.00;;;16.40;99.90;;;;;;5028540;28;20428;-73
2022/10/24 11:32:32;;;;;;;7.10;1.17;;;16.50;99.90;;;;;;5046962;28;20418;-73
2022/10/24 11:35:24;;;;;;;5.17;1.30;;;16.50;99.90;;;;;;5027666;28;20806;-74
2022/10/24 11:38:05;;;;;;;4.90;1.10;;;16.40;99.90;;;;;;5046523;28;20423;-74
2022/10/24 11:40:32;;;;;;;6.37;1.37;;;16.20;99.90;;;;;;5032035;28;20539;-75
2022/10/24 11:43:21;;;;;;;2.67;1.20;;;16.00;99.90;;;;;;5050319;28;20439;-74
2022/10/24 11:46:00;;;;;;;7.67;1.00;;;16.00;99.90;;;;;;5050589;28;20463;-73
2022/10/24 11:48:37;;;;;;;1.77;1.07;;;16.00;99.90;;;;;;5050400;28;20514;-72
2022/10/24 11:51:39;;;;;;;3.70;1.30;;;16.00;99.90;;;;;;5050830;28;20416;-74
2022/10/24 11:54:15;;;;;;;2.40;0.97;;;16.10;99.90;;;;;;5036424;28;20501;-73
2022/10/24 11:56:50;;;;;;;5.47;0.93;;;16.10;99.90;;;;;;5050262;28;20494;-73
2022/10/24 11:59:22;;;;;;;6.03;1.53;;;16.20;99.90;;;;;;5050132;28;20427;-72
2022/10/24 12:01:54;;;;;;;4.67;1.07;;;16.20;99.90;;;;;;5032756;28;20914;-72
2022/10/24 12:04:26;;;;;;;3.33;1.13;;;16.30;99.90;;;;;;5050015;28;20782;-73
2022/10/24 12:07:04;;;;;;;3.60;1.10;;;16.40;99.90;;;;;;5049976;28;20419;-72
2022/10/24 12:09:48;;;;;;;2.97;1.10;;;16.50;99.90;;;;;;5031942;28;20423;-74
2022/10/24 12:12:47;;;;;;;3.53;0.80;;;16.40;99.90;;;;;;5049741;28;20507;-72
2022/10/24 12:15:24;;;;;;;2.50;1.00;;;16.30;99.90;;;;;;5049957;28;20938;-72
2022/10/24 12:17:59;;;;;;;4.17;1.10;;;16.40;99.90;;;;;;5049780;28;20416;-72
2022/10/24 12:20:26;;;;;;;1.97;0.80;;;16.30;99.90;;;;;;5050064;28;20417;-72
2022/10/24 12:22:53;;;;;;;5.07;0.93;;;16.30;99.90;;;;;;5049765;28;20471;-73
2022/10/24 12:25:31;;;;;;;2.70;1.23;;;16.30;99.90;;;;;;5049882;28;21118;-72
2022/10/24 12:28:20;;;;;;;5.13;1.33;;;16.30;99.90;;;;;;5031663;28;20435;-73
2022/10/24 12:31:13;;;;;;;1.63;0.90;;;16.30;99.90;;;;;;5031631;28;20454;-72
2022/10/24 12:33:40;;;;;;;2.50;0.97;;;16.20;99.90;;;;;;5049378;28;20432;-73
2022/10/24 12:36:07;;;;;;;1.30;0.73;;;16.20;99.90;;;;;;5031528;28;20454;-74
2022/10/24 12:38:32;;;;;;;6.00;1.43;;;16.10;99.90;;;;;;5049382;28;20997;-73
2022/10/24 12:41:08;;;;;;;1.43;0.80;;;16.20;99.90;;;;;;5049431;28;20494;-73
2022/10/24 12:43:43;;;;;;;3.13;0.93;;;16.20;99.90;;;;;;5049417;28;20285;-73
2022/10/24 12:46:15;;;;;;;2.83;0.97;;;16.20;99.90;;;;;;5031048;28;20458;-72
2022/10/24 12:48:56;;;;;;;1.57;0.90;;;16.30;99.90;;;;;;5032377;28;20408;-71
2022/10/24 12:51:29;;;;;;;2.30;0.90;;;16.30;99.90;;;;;;5048809;28;20435;-72
2022/10/24 12:53:57;;;;;;;8.53;1.20;;;16.40;99.90;;;;;;5031511;28;20956;-72
2022/10/24 12:56:23;;;;;;;4.03;1.50;;;16.50;99.90;;;;;;5049363;28;20504;-72
2022/10/24 12:58:57;;;;;;;1.20;0.80;;;16.50;99.90;;;;;;5049433;28;21168;-72
2022/10/24 13:01:26;;;;;;;4.07;0.70;;;16.50;99.90;;;;;;5049486;28;20661;-71
2022/10/24 13:04:10;;;;;;;4.30;1.00;;;16.50;99.90;;;;;;5049443;28;20528;-71